createdAt,value
2023-04-28T00:00:15.026Z,42.00
2023-04-28T00:02:46.052Z,40.00
2023-04-28T00:05:15.884Z,44.00
2023-04-28T00:07:45.904Z,43.67
2023-04-28T00:10:15.769Z,37.00
2023-04-28T00:12:45.403Z,50.00
2023-04-28T00:15:14.230Z,38.00
2023-04-28T00:17:43.704Z,31.00
2023-04-28T00:20:13.314Z,37.00
2023-04-28T00:22:42.129Z,38.00
2023-04-28T00:25:11.100Z,33.00
2023-04-28T00:27:42.807Z,34.00
2023-04-28T00:30:12.292Z,28.00
2023-04-28T00:32:41.229Z,34.50
2023-04-28T00:35:10.464Z,36.50
2023-04-28T00:37:40.583Z,39.50
2023-04-28T00:40:11.244Z,36.00
2023-04-28T00:42:40.094Z,39.50
2023-04-28T00:45:08.693Z,40.00
2023-04-28T00:47:38.624Z,31.00
2023-04-28T00:50:08.424Z,34.50
2023-04-28T00:52:38.941Z,32.50
2023-04-28T00:55:09.976Z,38.00
2023-04-28T00:57:39.340Z,34.50
2023-04-28T01:00:09.709Z,33.00
2023-04-28T01:02:38.141Z,34.00
2023-04-28T01:05:06.631Z,32.50
2023-04-28T01:07:35.148Z,24.00
2023-04-28T01:10:04.411Z,32.00
2023-04-28T01:12:33.489Z,41.00
2023-04-28T01:15:01.790Z,31.50
2023-04-28T01:17:30.002Z,34.00
2023-04-28T01:19:58.764Z,37.00
2023-04-28T01:22:26.662Z,26.50
2023-04-28T01:24:54.626Z,31.50
2023-04-28T01:27:24.619Z,22.33
2023-04-28T01:29:52.669Z,36.50
2023-04-28T01:32:20.627Z,31.00
2023-04-28T01:34:49.405Z,29.33
2023-04-28T01:37:17.301Z,31.00
2023-04-28T01:39:45.169Z,36.00
2023-04-28T01:42:13.927Z,32.00
2023-04-28T01:44:42.859Z,29.67
2023-04-28T01:47:11.635Z,22.67
2023-04-28T01:49:39.480Z,29.50
2023-04-28T01:52:07.443Z,35.00
2023-04-28T01:54:36.218Z,26.00
2023-04-28T01:57:05.034Z,32.50
2023-04-28T01:59:34.060Z,37.50
2023-04-28T02:02:02.993Z,28.00
2023-04-28T02:04:31.055Z,28.00
2023-04-28T02:06:59.354Z,33.50
2023-04-28T02:09:28.898Z,42.33
2023-04-28T02:11:57.702Z,32.50
2023-04-28T02:14:27.336Z,32.50
2023-04-28T02:16:55.291Z,33.00
2023-04-28T02:19:23.137Z,30.00
2023-04-28T02:21:52.704Z,51.33
2023-04-28T02:24:21.526Z,63.00
2023-04-28T02:26:51.146Z,77.33
2023-04-28T02:29:20.050Z,70.50
2023-04-28T02:31:48.341Z,62.00
2023-04-28T02:34:16.566Z,63.00
2023-04-28T02:36:45.553Z,58.00
2023-04-28T02:39:14.433Z,57.00
2023-04-28T02:41:43.211Z,48.50
2023-04-28T02:44:12.035Z,34.00
2023-04-28T02:46:41.036Z,40.50
2023-04-28T02:49:09.895Z,47.50
2023-04-28T02:51:37.861Z,36.00
2023-04-28T02:54:07.498Z,54.33
2023-04-28T02:56:37.442Z,33.50
2023-04-28T02:59:05.301Z,30.00
2023-04-28T03:01:34.336Z,39.50
2023-04-28T03:04:02.414Z,23.50
2023-04-28T03:06:31.930Z,40.00
2023-04-28T03:08:59.770Z,35.00
2023-04-28T03:11:28.561Z,37.50
2023-04-28T03:13:57.381Z,39.00
2023-04-28T03:16:26.185Z,68.50
2023-04-28T03:18:55.016Z,42.50
2023-04-28T03:21:26.845Z,45.33
2023-04-28T03:23:55.671Z,43.50
2023-04-28T03:26:25.339Z,50.67
2023-04-28T03:28:54.424Z,41.50
2023-04-28T03:31:23.271Z,48.50
2023-04-28T03:33:52.058Z,52.50
2023-04-28T03:36:21.732Z,52.00
2023-04-28T03:38:50.495Z,61.00
2023-04-28T03:41:18.791Z,56.00
2023-04-28T03:43:47.593Z,69.00
2023-04-28T03:46:17.187Z,74.00
2023-04-28T03:48:46.524Z,42.50
2023-04-28T03:51:15.395Z,42.00
2023-04-28T03:53:44.269Z,32.50
2023-04-28T03:56:13.569Z,39.50
2023-04-28T03:58:42.734Z,33.50
2023-04-28T04:01:11.702Z,64.50
2023-04-28T04:03:41.376Z,64.50
2023-04-28T04:06:12.216Z,24.67
2023-04-28T04:08:42.120Z,38.50
2023-04-28T04:11:11.109Z,44.00
2023-04-28T04:13:40.698Z,42.00
2023-04-28T04:16:10.423Z,50.67
2023-04-28T04:18:38.338Z,45.50
2023-04-28T04:21:07.079Z,46.50
2023-04-28T04:23:35.998Z,39.33
2023-04-28T04:26:04.838Z,47.00
2023-04-28T04:28:34.372Z,50.33
2023-04-28T04:31:03.622Z,40.50
2023-04-28T04:33:34.843Z,42.00
2023-04-28T04:36:05.038Z,35.50
2023-04-28T04:38:34.805Z,42.33
2023-04-28T04:41:04.409Z,37.67
2023-04-28T04:43:33.972Z,41.33
2023-04-28T04:46:04.365Z,46.00
2023-04-28T04:48:33.174Z,47.00
2023-04-28T04:51:02.788Z,46.00
2023-04-28T04:53:32.376Z,48.33
2023-04-28T04:56:01.773Z,39.00
2023-04-28T04:58:32.169Z,41.33
2023-04-28T05:01:00.893Z,41.00
2023-04-28T05:03:30.523Z,40.00
2023-04-28T05:06:00.147Z,44.00
2023-04-28T05:08:30.164Z,45.67
2023-04-28T05:10:59.746Z,47.67
2023-04-28T05:13:29.368Z,73.33
2023-04-28T05:15:59.405Z,49.67
2023-04-28T05:18:29.006Z,48.33
2023-04-28T05:20:57.814Z,39.00
2023-04-28T05:23:27.378Z,39.00
2023-04-28T05:25:56.417Z,42.00
2023-04-28T05:28:26.142Z,37.00
2023-04-28T05:30:54.906Z,32.33
2023-04-28T05:33:24.331Z,55.50
2023-04-28T05:35:54.044Z,40.33
2023-04-28T05:38:23.437Z,34.33
2023-04-28T05:40:53.028Z,30.00
2023-04-28T05:43:21.808Z,29.33
2023-04-28T05:45:50.866Z,31.00
2023-04-28T05:48:20.700Z,35.33
2023-04-28T05:50:49.570Z,34.00
2023-04-28T05:53:18.324Z,37.00
2023-04-28T05:55:48.492Z,31.33
2023-04-28T05:58:17.391Z,30.33
2023-04-28T06:00:46.210Z,32.50
2023-04-28T06:03:19.322Z,33.00
2023-04-28T06:05:49.404Z,34.33
2023-04-28T06:08:20.177Z,33.00
2023-04-28T06:10:48.858Z,37.33
2023-04-28T06:13:18.423Z,34.00
2023-04-28T06:15:47.173Z,30.67
2023-04-28T06:18:18.802Z,39.50
2023-04-28T06:20:47.600Z,34.50
2023-04-28T06:23:16.723Z,33.67
2023-04-28T06:25:46.302Z,35.67
2023-04-28T06:28:15.185Z,21.00
2023-04-28T06:30:43.949Z,26.50
2023-04-28T06:33:13.484Z,24.00
2023-04-28T06:35:42.521Z,26.50
2023-04-28T06:38:11.368Z,23.33
2023-04-28T06:40:41.290Z,26.67
2023-04-28T06:43:09.980Z,25.00
2023-04-28T06:45:39.282Z,19.00
2023-04-28T06:48:08.575Z,21.00
2023-04-28T06:50:38.568Z,66.00
2023-04-28T06:53:07.927Z,23.00
2023-04-28T06:55:36.972Z,20.00
2023-04-28T06:58:08.851Z,22.00
2023-04-28T07:00:40.692Z,14.67
2023-04-28T07:03:12.777Z,22.67
2023-04-28T07:05:44.719Z,25.67
2023-04-28T07:08:17.896Z,18.67
2023-04-28T07:10:48.778Z,13.00
2023-04-28T07:13:19.686Z,19.00
2023-04-28T07:15:51.466Z,20.00
2023-04-28T07:18:23.284Z,17.33
2023-04-28T07:20:55.657Z,23.67
2023-04-28T07:23:27.474Z,20.33
2023-04-28T07:25:59.486Z,21.33
2023-04-28T07:28:31.616Z,28.67
2023-04-28T07:31:03.399Z,24.00
2023-04-28T07:33:36.069Z,27.33
2023-04-28T07:36:08.093Z,26.67
2023-04-28T07:38:40.536Z,25.00
2023-04-28T07:41:13.370Z,25.00
2023-04-28T07:43:45.430Z,19.67
2023-04-28T07:46:17.081Z,12.50
2023-04-28T07:48:49.769Z,25.33
2023-04-28T07:51:21.592Z,23.00
2023-04-28T07:53:53.364Z,21.67
2023-04-28T07:56:23.046Z,26.00
2023-04-28T07:58:54.043Z,26.63
2023-04-28T08:01:25.151Z,23.00
2023-04-28T08:03:57.237Z,24.67
2023-04-28T08:06:28.585Z,28.33
2023-04-28T08:08:56.757Z,29.67
2023-04-28T08:11:24.941Z,25.67
2023-04-28T08:13:53.363Z,24.50
2023-04-28T08:16:22.802Z,24.33
2023-04-28T08:18:51.046Z,15.67
2023-04-28T08:21:19.325Z,18.00
2023-04-28T08:23:47.520Z,25.50
2023-04-28T08:26:15.928Z,26.67
2023-04-28T08:28:44.545Z,20.00
2023-04-28T08:31:12.820Z,20.00
2023-04-28T08:33:40.197Z,15.00
2023-04-28T08:36:08.465Z,18.67
2023-04-28T08:38:36.608Z,15.67
2023-04-28T08:41:05.772Z,21.50
2023-04-28T08:43:40.806Z,15.00
2023-04-28T08:46:08.598Z,11.50
2023-04-28T08:48:43.726Z,9.50
2023-04-28T08:51:16.862Z,8.50
2023-04-28T08:56:28.107Z,18.00
2023-04-28T08:58:56.755Z,10.67
2023-04-28T09:01:25.401Z,11.67
2023-04-28T09:03:55.191Z,8.60
2023-04-28T09:06:23.909Z,13.00
2023-04-28T09:08:51.183Z,10.00
2023-04-28T09:11:19.605Z,10.33
2023-04-28T09:13:47.571Z,10.00
2023-04-28T09:16:15.713Z,14.00
2023-04-28T09:18:57.859Z,10.00
2023-04-28T09:21:25.107Z,11.00
2023-04-28T09:23:52.349Z,6.00
2023-04-28T09:26:20.684Z,11.67
2023-04-28T09:28:47.974Z,12.00
2023-04-28T09:31:25.593Z,8.40
2023-04-28T09:34:03.408Z,11.67
2023-04-28T09:36:31.645Z,12.67
2023-04-28T09:39:00.332Z,13.00
2023-04-28T09:41:42.571Z,11.00
2023-04-28T09:44:17.475Z,11.20
2023-04-28T09:46:47.053Z,12.00
2023-04-28T09:49:15.666Z,12.00
2023-04-28T09:51:42.933Z,6.50
2023-04-28T09:54:11.885Z,17.33
2023-04-28T09:56:43.035Z,17.00
2023-04-28T09:59:11.511Z,10.33
2023-04-28T10:01:41.946Z,10.00
2023-04-28T10:04:12.270Z,10.00
2023-04-28T10:06:40.973Z,11.33
2023-04-28T10:09:08.693Z,13.00
2023-04-28T10:11:39.581Z,9.80
2023-04-28T10:14:08.958Z,9.80
2023-04-28T10:16:38.130Z,11.20
2023-04-28T10:19:06.365Z,10.00
2023-04-28T10:21:47.521Z,11.67
2023-04-28T10:24:25.939Z,10.00
2023-04-28T10:27:09.484Z,9.00
2023-04-28T10:29:37.794Z,10.00
2023-04-28T10:32:23.426Z,17.33
2023-04-28T10:34:52.887Z,56.67
2023-04-28T10:37:20.278Z,11.00
2023-04-28T10:40:35.341Z,13.33
2023-04-28T10:43:03.508Z,7.00
2023-04-28T10:46:00.888Z,12.00
2023-04-28T10:48:37.680Z,12.00
2023-04-28T10:51:10.047Z,14.67
2023-04-28T10:53:47.571Z,12.33
2023-04-28T10:56:25.145Z,11.60
2023-04-28T10:58:58.303Z,10.33
2023-04-28T11:01:32.353Z,9.50
2023-04-28T11:04:11.001Z,10.00
2023-04-28T11:06:40.853Z,9.00
2023-04-28T11:09:12.827Z,10.00
2023-04-28T11:11:59.998Z,10.00
2023-04-28T11:14:33.606Z,12.50
2023-04-28T11:17:08.710Z,10.00
2023-04-28T11:19:40.383Z,12.00
2023-04-28T11:22:19.673Z,9.00
2023-04-28T11:25:03.026Z,10.00
2023-04-28T11:27:33.894Z,12.33
2023-04-28T11:30:02.088Z,10.00
2023-04-28T11:32:33.145Z,10.33
2023-04-28T11:35:00.718Z,15.00
2023-04-28T11:37:28.794Z,10.00
2023-04-28T11:39:56.057Z,12.00
2023-04-28T11:42:26.089Z,11.00
2023-04-28T11:44:55.295Z,9.67
2023-04-28T11:47:34.971Z,9.80
2023-04-28T11:50:03.450Z,11.00
2023-04-28T11:52:30.836Z,7.00
2023-04-28T11:55:02.389Z,11.00
2023-04-28T11:57:30.827Z,10.33
2023-04-28T12:00:22.358Z,14.33
2023-04-28T12:02:50.071Z,10.00
2023-04-28T12:05:17.596Z,10.00
2023-04-28T12:07:46.030Z,12.00
2023-04-28T12:10:20.049Z,11.67
2023-04-28T12:12:52.659Z,11.00
2023-04-28T12:15:23.063Z,8.00
2023-04-28T12:17:51.583Z,10.00
2023-04-28T12:20:37.536Z,10.50
2023-04-28T12:23:06.383Z,10.33
2023-04-28T12:25:35.496Z,9.00
2023-04-28T12:28:07.853Z,11.00
2023-04-28T12:30:42.795Z,10.00
2023-04-28T12:33:26.464Z,8.00
2023-04-28T12:35:57.367Z,10.80
2023-04-28T12:38:27.404Z,22.00
2023-04-28T12:40:55.656Z,16.33
2023-04-28T12:43:24.397Z,17.00
2023-04-28T12:45:54.017Z,14.00
2023-04-28T12:48:24.254Z,17.33
2023-04-28T12:50:52.687Z,14.67
2023-04-28T12:53:20.954Z,11.00
2023-04-28T12:55:48.284Z,13.00
2023-04-28T12:58:16.365Z,10.67
2023-04-28T13:00:44.647Z,21.00
2023-04-28T13:03:12.047Z,10.00
2023-04-28T13:05:40.286Z,12.00
2023-04-28T13:08:08.520Z,22.00
2023-04-28T13:10:36.677Z,15.33
2023-04-28T13:13:05.849Z,23.00
2023-04-28T13:15:33.340Z,12.00
2023-04-28T13:18:01.609Z,14.33
2023-04-28T13:20:30.681Z,8.00
2023-04-28T13:22:59.764Z,10.80
2023-04-28T13:25:27.032Z,10.50
2023-04-28T13:27:56.091Z,9.80
2023-04-28T13:30:24.152Z,10.67
2023-04-28T13:32:52.330Z,11.00
2023-04-28T13:35:20.684Z,11.00
2023-04-28T13:37:48.813Z,14.00
2023-04-28T13:40:18.004Z,9.40
2023-04-28T13:42:47.051Z,11.00
2023-04-28T13:45:16.246Z,8.00
2023-04-28T13:47:44.915Z,6.00
2023-04-28T13:50:12.994Z,9.67
2023-04-28T13:52:40.230Z,9.00
2023-04-28T13:55:07.956Z,17.00
2023-04-28T13:57:35.280Z,19.00
2023-04-28T14:00:05.458Z,11.00
2023-04-28T14:02:33.678Z,11.67
2023-04-28T14:05:01.861Z,21.50
2023-04-28T14:07:30.044Z,22.00
2023-04-28T14:09:58.106Z,15.00
2023-04-28T14:12:27.074Z,14.67
2023-04-28T14:14:55.266Z,22.00
2023-04-28T14:17:23.478Z,24.00
2023-04-28T14:19:51.568Z,18.00
2023-04-28T14:22:18.854Z,13.50
2023-04-28T14:24:47.224Z,11.00
2023-04-28T14:27:16.024Z,12.00
2023-04-28T14:29:44.846Z,23.00
2023-04-28T14:32:13.347Z,12.00
2023-04-28T14:34:41.033Z,25.50
2023-04-28T14:37:09.535Z,11.00
2023-04-28T14:39:39.090Z,10.00
2023-04-28T14:42:06.994Z,9.50
2023-04-28T14:44:35.181Z,11.00
2023-04-28T14:47:04.422Z,17.00
2023-04-28T14:49:34.323Z,10.80
2023-04-28T14:52:02.710Z,11.33
2023-04-28T14:54:32.514Z,8.80
2023-04-28T14:57:00.341Z,15.50
2023-04-28T14:59:29.397Z,11.00
2023-04-28T15:01:56.760Z,9.50
2023-04-28T15:04:30.033Z,16.67
2023-04-28T15:06:59.913Z,22.50
2023-04-28T15:09:27.903Z,11.00
2023-04-28T15:11:56.131Z,21.50
2023-04-28T15:14:24.292Z,21.00
2023-04-28T15:16:52.557Z,15.50
2023-04-28T15:19:21.735Z,24.00
2023-04-28T15:21:50.102Z,18.67
2023-04-28T15:24:21.525Z,13.67
2023-04-28T15:26:50.793Z,13.20
2023-04-28T15:29:19.250Z,20.00
2023-04-28T15:31:47.398Z,13.00
2023-04-28T15:34:14.690Z,13.00
2023-04-28T15:36:43.905Z,7.50
2023-04-28T15:39:12.040Z,10.67
2023-04-28T15:41:41.141Z,13.20
2023-04-28T15:44:10.769Z,9.67
2023-04-28T15:46:38.901Z,12.00
2023-04-28T15:49:06.960Z,11.50
2023-04-28T15:51:35.128Z,23.00
2023-04-28T15:54:04.516Z,10.80
2023-04-28T15:56:32.643Z,10.00
2023-04-28T15:58:59.917Z,11.00
2023-04-28T16:01:28.682Z,9.00
2023-04-28T16:03:56.447Z,19.00
2023-04-28T16:06:25.746Z,12.00
2023-04-28T16:08:57.166Z,20.00
2023-04-28T16:11:24.583Z,17.00
2023-04-28T16:13:51.872Z,16.50
2023-04-28T16:16:23.474Z,16.50
2023-04-28T16:18:51.744Z,24.00
2023-04-28T16:21:19.903Z,27.00
2023-04-28T16:23:47.229Z,25.50
2023-04-28T16:26:15.418Z,16.00
2023-04-28T16:28:43.571Z,16.00
2023-04-28T16:31:13.905Z,14.00
2023-04-28T16:33:42.931Z,29.33
2023-04-28T16:36:11.750Z,56.00
2023-04-28T16:38:41.307Z,71.75
2023-04-28T16:41:09.467Z,54.67
2023-04-28T16:43:38.593Z,30.33
2023-04-28T16:46:08.343Z,45.00
2023-04-28T16:48:37.608Z,62.00
2023-04-28T16:51:10.294Z,58.33
2023-04-28T16:53:39.335Z,49.33
2023-04-28T16:56:10.434Z,41.67
2023-04-28T16:58:39.236Z,46.67
2023-04-28T17:01:09.144Z,62.67
2023-04-28T17:03:42.117Z,64.00
2023-04-28T17:06:13.964Z,69.67
2023-04-28T17:08:43.094Z,63.00
2023-04-28T17:11:17.981Z,74.75
2023-04-28T17:13:47.106Z,81.00
2023-04-28T17:16:16.493Z,73.25
2023-04-28T17:18:45.245Z,73.00
2023-04-28T17:21:15.451Z,66.00
2023-04-28T17:23:43.700Z,58.67
2023-04-28T17:26:12.028Z,58.33
2023-04-28T17:28:41.192Z,55.67
2023-04-28T17:31:11.698Z,57.33
2023-04-28T17:33:39.934Z,51.00
2023-04-28T17:36:08.364Z,39.00
2023-04-28T17:38:38.272Z,40.00
2023-04-28T17:41:07.803Z,52.33
2023-04-28T17:43:36.902Z,21.67
2023-04-28T17:46:07.893Z,42.00
2023-04-28T17:48:36.995Z,53.67
2023-04-28T17:51:06.791Z,50.00
2023-04-28T17:53:35.084Z,39.00
2023-04-28T17:56:03.807Z,19.00
2023-04-28T17:58:36.540Z,29.00
2023-04-28T18:01:10.761Z,25.33
2023-04-28T18:03:43.424Z,30.33
2023-04-28T18:06:16.424Z,34.00
2023-04-28T18:08:48.248Z,29.33
2023-04-28T18:11:20.967Z,25.00
2023-04-28T18:13:52.910Z,24.00
2023-04-28T18:16:25.951Z,21.67
2023-04-28T18:18:58.615Z,25.33
2023-04-28T18:21:30.465Z,20.50
2023-04-28T18:24:02.424Z,22.00
2023-04-28T18:26:34.295Z,20.00
2023-04-28T18:29:06.207Z,20.00
2023-04-28T18:31:40.220Z,23.00
2023-04-28T18:34:12.166Z,17.67
2023-04-28T18:36:44.199Z,20.00
2023-04-28T18:39:18.480Z,26.00
2023-04-28T18:41:52.279Z,22.50
2023-04-28T18:44:24.318Z,32.33
2023-04-28T18:46:56.395Z,36.00
2023-04-28T18:49:30.298Z,36.00
2023-04-28T18:52:05.214Z,39.33
2023-04-28T18:54:38.056Z,44.33
2023-04-28T18:57:10.601Z,48.33
2023-04-28T18:59:42.512Z,46.00
2023-04-28T19:02:16.570Z,51.67
2023-04-28T19:04:49.897Z,50.33
2023-04-28T19:07:22.682Z,44.00
2023-04-28T19:09:54.491Z,44.00
2023-04-28T19:12:28.660Z,36.67
2023-04-28T19:15:01.326Z,39.33
2023-04-28T19:17:34.581Z,32.33
2023-04-28T19:20:06.904Z,34.67
2023-04-28T19:22:41.631Z,24.50
2023-04-28T19:25:13.988Z,16.67
2023-04-28T19:27:46.461Z,18.50
2023-04-28T19:30:18.983Z,22.00
2023-04-28T19:32:51.646Z,27.33
2023-04-28T19:35:21.947Z,30.67
2023-04-28T19:37:50.768Z,25.50
2023-04-28T19:40:18.285Z,18.00
2023-04-28T19:42:46.541Z,15.33
2023-04-28T19:45:15.108Z,18.33
2023-04-28T19:47:42.525Z,16.00
2023-04-28T19:50:11.775Z,16.00
2023-04-28T19:52:40.004Z,17.67
2023-04-28T19:55:08.568Z,17.00
2023-04-28T19:57:36.791Z,14.67
2023-04-28T20:00:06.356Z,18.00
2023-04-28T20:02:34.652Z,19.00
2023-04-28T20:05:03.867Z,16.00
2023-04-28T20:07:32.410Z,18.00
2023-04-28T20:10:01.029Z,18.00
2023-04-28T20:12:29.353Z,18.00
2023-04-28T20:14:56.642Z,16.00
2023-04-28T20:17:24.140Z,17.50
2023-04-28T20:19:53.095Z,21.33
2023-04-28T20:22:21.528Z,19.67
2023-04-28T20:24:49.841Z,16.00
2023-04-28T20:27:22.165Z,17.00
2023-04-28T20:29:50.587Z,17.50
2023-04-28T20:32:18.232Z,14.00
2023-04-28T20:34:46.745Z,19.00
2023-04-28T20:37:15.435Z,21.00
2023-04-28T20:39:42.705Z,20.00
2023-04-28T20:42:10.359Z,25.00
2023-04-28T20:44:39.311Z,24.00
2023-04-28T20:47:08.690Z,34.67
2023-04-28T20:49:36.857Z,29.00
2023-04-28T20:52:06.658Z,30.00
2023-04-28T20:54:36.421Z,26.33
2023-04-28T20:57:05.590Z,28.00
2023-04-28T20:59:34.047Z,28.00
2023-04-28T21:02:03.120Z,28.00
2023-04-28T21:04:31.452Z,26.50
2023-04-28T21:06:59.665Z,23.50
2023-04-28T21:09:27.016Z,18.00
2023-04-28T21:11:55.376Z,18.00
2023-04-28T21:14:23.698Z,25.00
2023-04-28T21:16:51.295Z,21.50
2023-04-28T21:19:20.547Z,26.50
2023-04-28T21:21:50.642Z,26.33
2023-04-28T21:24:21.074Z,25.50
2023-04-28T21:26:52.180Z,25.67
2023-04-28T21:29:25.006Z,27.33
2023-04-28T21:31:57.657Z,28.33
2023-04-28T21:34:30.610Z,24.33
2023-04-28T21:37:02.591Z,30.00
2023-04-28T21:39:34.465Z,22.00
2023-04-28T21:42:08.287Z,21.50
2023-04-28T21:44:41.109Z,21.00
2023-04-28T21:47:13.049Z,23.50
2023-04-28T21:49:44.551Z,16.50
2023-04-28T21:52:16.510Z,21.00
2023-04-28T21:54:48.361Z,22.00
2023-04-28T21:57:20.261Z,19.00
2023-04-28T21:59:52.415Z,24.50
2023-04-28T22:02:25.312Z,24.50
2023-04-28T22:04:58.362Z,24.67
2023-04-28T22:07:30.301Z,24.50
2023-04-28T22:10:02.272Z,21.00
2023-04-28T22:12:34.600Z,24.50
2023-04-28T22:15:06.727Z,22.00
2023-04-28T22:17:39.548Z,21.00
2023-04-28T22:20:12.299Z,23.00
2023-04-28T22:22:44.113Z,21.50
2023-04-28T22:25:16.093Z,23.50
2023-04-28T22:27:48.069Z,22.50
2023-04-28T22:30:20.224Z,27.00
2023-04-28T22:32:52.057Z,26.67
2023-04-28T22:35:23.985Z,25.50
2023-04-28T22:37:55.862Z,19.50
2023-04-28T22:40:28.038Z,23.50
2023-04-28T22:42:59.860Z,21.50
2023-04-28T22:45:31.673Z,24.50
2023-04-28T22:48:03.597Z,23.50
2023-04-28T22:50:35.871Z,24.33
2023-04-28T22:53:08.559Z,26.33
2023-04-28T22:55:40.385Z,25.67
2023-04-28T22:58:13.105Z,26.33
2023-04-28T23:00:45.474Z,29.33
2023-04-28T23:03:18.273Z,30.67
2023-04-28T23:05:52.022Z,29.67
2023-04-28T23:08:24.695Z,40.67
2023-04-28T23:10:59.693Z,29.00
2023-04-28T23:13:31.762Z,29.33
2023-04-28T23:16:04.690Z,30.33
2023-04-28T23:18:37.491Z,39.00
2023-04-28T23:21:09.688Z,40.00
2023-04-28T23:23:42.413Z,28.00
2023-04-28T23:26:15.026Z,25.67
2023-04-28T23:28:48.427Z,24.00
2023-04-28T23:31:21.616Z,28.00
2023-04-28T23:33:54.315Z,32.33
2023-04-28T23:36:26.109Z,29.00
2023-04-28T23:38:58.009Z,25.50
2023-04-28T23:41:29.971Z,22.00
2023-04-28T23:44:02.012Z,26.50
2023-04-28T23:46:34.104Z,27.50
2023-04-28T23:49:06.029Z,25.50
2023-04-28T23:51:37.903Z,23.00
2023-04-28T23:54:10.020Z,20.50
2023-04-28T23:56:42.892Z,22.67
2023-04-28T23:59:14.691Z,21.00
